Time;durP1;ratioP1;P1;durP2;ratioP2;P2;SDS_P1;SDS_P2;PMS_P1;PMS_P2;Temp;Humidity;BMP_temperature;BMP_pressure;BME280_temperature;BME280_humidity;BME280_pressure;Samples;Min_cycle;Max_cycle;Signal;HPM_P1;HPM_P2
2021/07/07 00:00:10;;;;;;;3.05;1.20;;;16.30;99.90;;;;;;5036568;28;20137;-83
2021/07/07 00:02:57;;;;;;;2.67;1.13;;;16.20;99.90;;;;;;5051080;28;20101;-84
2021/07/07 00:05:45;;;;;;;5.57;1.10;;;16.10;99.90;;;;;;5037038;28;20041;-83
2021/07/07 00:08:33;;;;;;;4.03;1.20;;;16.10;99.90;;;;;;5038078;28;20104;-85
2021/07/07 00:11:20;;;;;;;5.43;1.35;;;16.20;99.90;;;;;;5052188;28;20033;-84
2021/07/07 00:14:07;;;;;;;2.95;1.00;;;16.10;99.90;;;;;;5050008;28;20045;-86
2021/07/07 00:16:54;;;;;;;2.63;0.90;;;16.00;99.90;;;;;;5050886;28;20055;-84
2021/07/07 00:19:41;;;;;;;6.13;1.40;;;16.00;99.90;;;;;;5051037;28;20053;-85
2021/07/07 00:22:30;;;;;;;6.38;1.42;;;16.00;99.90;;;;;;5051547;28;20056;-84
2021/07/07 00:25:17;;;;;;;5.18;1.20;;;16.00;99.90;;;;;;5052480;28;20033;-82
2021/07/07 00:28:04;;;;;;;3.58;1.20;;;15.90;99.90;;;;;;5053211;28;20037;-85
2021/07/07 00:30:53;;;;;;;5.97;1.23;;;15.90;99.90;;;;;;5053217;28;20105;-83
2021/07/07 00:33:40;;;;;;;2.83;1.00;;;15.90;99.90;;;;;;5053703;28;20060;-84
2021/07/07 00:36:27;;;;;;;4.75;1.20;;;15.90;99.90;;;;;;5055491;28;20079;-82
2021/07/07 00:39:16;;;;;;;2.90;1.10;;;15.80;99.90;;;;;;5053940;28;20045;-83
2021/07/07 00:42:04;;;;;;;3.33;1.17;;;15.80;99.90;;;;;;5052089;28;20057;-85
2021/07/07 00:44:51;;;;;;;3.92;1.20;;;15.60;99.90;;;;;;5040632;28;20055;-81
2021/07/07 00:47:38;;;;;;;3.35;1.33;;;15.60;99.90;;;;;;5041176;28;20053;-83
2021/07/07 00:50:26;;;;;;;2.58;1.02;;;15.50;99.90;;;;;;5039898;28;20045;-86
2021/07/07 00:53:13;;;;;;;5.10;1.10;;;15.40;99.90;;;;;;5041040;28;20046;-82
2021/07/07 00:56:02;;;;;;;5.30;1.30;;;15.40;99.90;;;;;;5041512;28;20048;-83
2021/07/07 00:58:54;;;;;;;4.22;1.23;;;15.40;99.90;;;;;;5055628;28;20034;-82
2021/07/07 01:01:42;;;;;;;3.67;1.20;;;15.40;99.90;;;;;;5040953;28;20064;-83
2021/07/07 01:04:30;;;;;;;3.72;0.95;;;15.40;99.90;;;;;;5039150;28;20041;-84
2021/07/07 01:07:17;;;;;;;5.05;1.20;;;15.50;99.90;;;;;;5039498;28;20048;-82
2021/07/07 01:10:05;;;;;;;3.28;1.35;;;15.20;99.90;;;;;;5045716;28;20058;-81
2021/07/07 01:12:54;;;;;;;2.40;1.13;;;15.20;99.90;;;;;;5041957;28;20029;-84
2021/07/07 01:15:42;;;;;;;4.72;1.35;;;15.10;99.90;;;;;;5043471;28;20037;-84
2021/07/07 01:18:30;;;;;;;4.32;1.08;;;15.10;99.90;;;;;;5041040;28;20037;-80
2021/07/07 01:21:19;;;;;;;3.15;1.13;;;15.10;99.90;;;;;;5041847;28;20073;-81
2021/07/07 01:24:07;;;;;;;7.85;1.30;;;15.10;99.90;;;;;;5055678;28;20049;-82
2021/07/07 01:26:54;;;;;;;3.92;1.10;;;15.80;99.90;;;;;;5055615;28;20045;-82
2021/07/07 01:29:42;;;;;;;3.08;1.10;;;14.90;99.90;;;;;;5055382;28;20046;-84
2021/07/07 01:32:29;;;;;;;5.00;1.30;;;14.90;99.90;;;;;;5056065;28;20029;-81
2021/07/07 01:35:17;;;;;;;1.98;1.00;;;14.90;99.90;;;;;;5056289;28;20097;-82
2021/07/07 01:38:04;;;;;;;6.60;1.50;;;14.90;99.90;;;;;;5056328;28;20054;-83
2021/07/07 01:40:55;;;;;;;4.47;0.90;;;15.00;99.90;;;;;;5056631;28;20033;-82
2021/07/07 01:43:42;;;;;;;6.43;1.30;;;14.90;99.90;;;;;;5055099;28;20041;-81
2021/07/07 01:46:29;;;;;;;3.25;1.40;;;14.80;99.90;;;;;;5055882;28;20030;-80
2021/07/07 01:49:17;;;;;;;4.47;1.30;;;14.80;99.90;;;;;;5047196;28;20041;-81
2021/07/07 01:52:04;;;;;;;5.13;1.30;;;14.80;99.90;;;;;;5060268;28;20592;-79
2021/07/07 01:54:51;;;;;;;5.68;1.60;;;14.90;99.90;;;;;;5059923;28;20042;-80
2021/07/07 01:57:43;;;;;;;5.50;1.58;;;14.80;99.90;;;;;;5059357;28;20506;-80
2021/07/07 02:00:34;;;;;;;4.20;1.73;;;14.80;99.90;;;;;;5046260;28;20062;-82
2021/07/07 02:03:21;;;;;;;7.93;1.85;;;14.80;99.90;;;;;;5046464;28;20089;-81
2021/07/07 02:06:08;;;;;;;6.90;2.20;;;14.80;99.90;;;;;;5060416;28;20036;-80
2021/07/07 02:08:56;;;;;;;3.97;1.55;;;14.80;99.90;;;;;;5046383;28;20033;-79
2021/07/07 02:11:43;;;;;;;4.00;1.73;;;14.70;99.90;;;;;;5059568;28;20043;-81
2021/07/07 02:14:32;;;;;;;6.07;1.88;;;14.70;99.90;;;;;;5059428;28;20025;-80
2021/07/07 02:17:19;;;;;;;6.07;2.17;;;14.70;99.90;;;;;;5058754;28;20044;-81
2021/07/07 02:20:08;;;;;;;5.35;1.70;;;14.70;99.90;;;;;;5045804;28;20049;-81
2021/07/07 02:22:56;;;;;;;4.40;1.90;;;14.60;99.90;;;;;;5047285;28;20043;-78
2021/07/07 02:25:45;;;;;;;8.98;2.33;;;14.60;99.90;;;;;;5046480;28;20026;-80
2021/07/07 02:28:32;;;;;;;6.82;2.10;;;14.50;99.90;;;;;;5059260;28;20038;-79
2021/07/07 02:31:20;;;;;;;8.65;2.03;;;14.50;99.90;;;;;;5058017;28;20100;-84
2021/07/07 02:34:07;;;;;;;4.45;2.00;;;14.50;99.90;;;;;;5039351;28;20046;-82
2021/07/07 02:36:55;;;;;;;6.63;2.00;;;14.50;99.90;;;;;;5038791;28;20101;-81
2021/07/07 02:39:42;;;;;;;3.65;1.55;;;14.40;99.90;;;;;;5039170;28;20050;-82
2021/07/07 02:42:29;;;;;;;3.47;1.55;;;14.50;99.90;;;;;;5039513;28;20107;-82
2021/07/07 02:45:17;;;;;;;4.32;1.73;;;14.50;99.90;;;;;;5039081;28;20036;-83
2021/07/07 02:48:06;;;;;;;4.32;1.67;;;14.50;99.90;;;;;;5039201;28;20101;-80
2021/07/07 02:50:53;;;;;;;8.55;1.88;;;14.40;99.90;;;;;;5039149;28;20057;-82
2021/07/07 02:53:40;;;;;;;7.78;1.80;;;14.50;99.90;;;;;;5038150;28;20081;-84
2021/07/07 02:56:27;;;;;;;4.68;1.95;;;14.50;99.90;;;;;;5039473;28;20046;-80
2021/07/07 02:59:14;;;;;;;3.20;1.80;;;14.50;99.90;;;;;;5038884;28;20110;-81
2021/07/07 03:02:02;;;;;;;5.28;1.70;;;14.60;99.90;;;;;;5038557;28;20100;-81
2021/07/07 03:04:50;;;;;;;3.33;1.60;;;14.60;99.90;;;;;;5038781;28;20039;-80
2021/07/07 03:07:37;;;;;;;2.42;1.30;;;14.60;99.90;;;;;;5037845;28;20077;-82
2021/07/07 03:10:25;;;;;;;3.70;1.60;;;14.50;99.90;;;;;;5038725;28;20062;-82
2021/07/07 03:13:13;;;;;;;6.25;1.52;;;14.40;99.90;;;;;;5053725;28;20636;-79
2021/07/07 03:16:00;;;;;;;3.97;1.58;;;14.50;99.90;;;;;;5057660;28;20099;-82
2021/07/07 03:18:47;;;;;;;3.08;1.60;;;14.50;99.90;;;;;;5058451;28;20140;-79
2021/07/07 03:21:36;;;;;;;4.15;1.70;;;14.50;99.90;;;;;;5043657;28;20093;-79
2021/07/07 03:24:23;;;;;;;3.25;1.50;;;14.50;99.90;;;;;;5058102;28;20033;-80
2021/07/07 03:27:10;;;;;;;8.68;1.45;;;14.60;99.90;;;;;;5057746;28;20049;-81
2021/07/07 03:29:57;;;;;;;5.50;1.73;;;14.60;99.90;;;;;;5043810;28;20056;-81
2021/07/07 03:32:44;;;;;;;6.80;1.50;;;14.60;99.90;;;;;;5056918;28;20069;-80
2021/07/07 03:35:32;;;;;;;4.60;1.55;;;14.70;99.90;;;;;;5059657;28;20065;-82
2021/07/07 03:38:21;;;;;;;5.75;1.58;;;14.70;99.90;;;;;;5056418;28;20029;-81
2021/07/07 03:41:08;;;;;;;5.30;1.60;;;14.80;99.90;;;;;;5059281;28;20036;-82
2021/07/07 03:43:55;;;;;;;5.18;1.63;;;14.80;99.90;;;;;;5058763;28;20080;-84
2021/07/07 03:46:42;;;;;;;8.00;1.80;;;14.80;99.90;;;;;;5056385;28;20105;-80
2021/07/07 03:49:29;;;;;;;3.20;1.33;;;14.80;99.90;;;;;;5057204;28;20100;-82
2021/07/07 03:52:16;;;;;;;4.57;1.40;;;14.90;99.90;;;;;;5059238;28;20085;-81
2021/07/07 03:55:07;;;;;;;5.97;1.67;;;14.90;99.90;;;;;;5058171;28;20041;-82
2021/07/07 03:57:54;;;;;;;4.65;1.50;;;14.90;99.90;;;;;;5056160;28;20100;-86
2021/07/07 04:00:41;;;;;;;5.78;1.50;;;14.80;99.90;;;;;;5056323;28;20139;-82
2021/07/07 04:03:28;;;;;;;6.70;1.73;;;15.10;99.90;;;;;;5056803;28;20047;-82
2021/07/07 04:06:16;;;;;;;7.35;1.63;;;14.80;99.90;;;;;;5057716;28;20084;-82
2021/07/07 04:09:03;;;;;;;3.70;1.40;;;14.90;99.90;;;;;;5056583;28;20080;-81
2021/07/07 04:11:51;;;;;;;5.13;1.70;;;15.00;99.90;;;;;;5058046;28;20040;-81
2021/07/07 04:14:38;;;;;;;4.97;1.50;;;15.10;99.90;;;;;;5056012;28;20093;-82
2021/07/07 04:17:25;;;;;;;5.38;1.42;;;15.10;99.90;;;;;;5042202;28;20043;-85
2021/07/07 04:20:14;;;;;;;6.07;1.45;;;15.20;99.90;;;;;;5042611;28;20086;-82
2021/07/07 04:23:01;;;;;;;4.53;1.50;;;15.20;99.90;;;;;;5042653;28;20108;-82
2021/07/07 04:25:49;;;;;;;3.00;1.48;;;15.30;99.90;;;;;;5041510;28;20101;-84
2021/07/07 04:28:37;;;;;;;4.93;1.58;;;15.30;99.90;;;;;;5042108;28;20081;-83
2021/07/07 04:31:24;;;;;;;4.45;1.50;;;15.30;99.90;;;;;;5041736;28;20085;-86
2021/07/07 04:34:12;;;;;;;4.95;1.38;;;15.40;99.90;;;;;;5036544;28;20041;-82
2021/07/07 04:37:01;;;;;;;4.43;1.63;;;15.40;99.90;;;;;;5036996;28;20032;-83
2021/07/07 04:39:48;;;;;;;5.13;1.52;;;15.50;99.90;;;;;;5034107;28;20046;-82
2021/07/07 04:42:35;;;;;;;3.47;1.38;;;15.60;99.90;;;;;;5034819;28;20069;-85
2021/07/07 04:45:23;;;;;;;3.83;1.40;;;15.60;99.90;;;;;;5035109;28;20049;-82
2021/07/07 04:48:11;;;;;;;4.22;1.50;;;15.60;99.90;;;;;;5034747;28;20105;-85
2021/07/07 04:50:58;;;;;;;2.90;1.20;;;15.70;99.90;;;;;;5047652;28;20046;-84
2021/07/07 04:53:45;;;;;;;4.03;1.55;;;15.70;99.90;;;;;;5033685;28;20156;-85
2021/07/07 04:56:33;;;;;;;4.07;1.40;;;15.80;99.90;;;;;;5047157;28;20046;-82
2021/07/07 04:59:20;;;;;;;5.30;1.23;;;15.80;99.90;;;;;;5047194;28;20060;-83
2021/07/07 05:02:08;;;;;;;2.50;1.20;;;15.90;99.90;;;;;;5047763;28;20061;-84
2021/07/07 05:04:55;;;;;;;4.13;1.60;;;16.00;99.90;;;;;;5044437;28;20049;-83
2021/07/07 05:07:43;;;;;;;8.45;1.60;;;16.00;99.90;;;;;;5032235;28;20089;-86
2021/07/07 05:10:32;;;;;;;3.20;1.50;;;16.10;99.90;;;;;;5029129;28;20042;-83
2021/07/07 05:13:19;;;;;;;2.65;1.50;;;16.10;99.90;;;;;;5045265;28;20099;-85
2021/07/07 05:16:07;;;;;;;5.13;1.58;;;16.20;99.90;;;;;;5048117;28;20046;-85
2021/07/07 05:18:56;;;;;;;4.97;1.55;;;16.20;99.90;;;;;;5033735;28;20069;-82
2021/07/07 05:21:44;;;;;;;4.45;1.70;;;16.30;99.90;;;;;;5033197;28;20060;-86
2021/07/07 05:24:31;;;;;;;4.32;1.42;;;16.30;99.90;;;;;;5032462;28;20546;-84
2021/07/07 05:27:18;;;;;;;3.75;1.40;;;16.20;99.90;;;;;;5035186;28;20081;-84
2021/07/07 05:30:07;;;;;;;6.57;1.58;;;16.20;99.90;;;;;;5034560;28;20048;-84
2021/07/07 05:32:55;;;;;;;5.63;1.40;;;16.30;99.90;;;;;;5031921;28;20519;-84
2021/07/07 05:35:43;;;;;;;3.15;1.42;;;16.30;99.90;;;;;;5031973;28;20050;-85
2021/07/07 05:38:30;;;;;;;3.15;1.25;;;16.40;99.90;;;;;;5032979;28;20055;-85
2021/07/07 05:41:18;;;;;;;4.13;1.50;;;16.40;99.90;;;;;;5030942;28;20063;-85
2021/07/07 05:44:05;;;;;;;4.43;1.33;;;16.60;99.90;;;;;;5031041;28;20121;-86
2021/07/07 05:46:53;;;;;;;3.53;1.60;;;16.80;99.90;;;;;;5030634;28;20517;-86
2021/07/07 05:49:41;;;;;;;4.78;1.60;;;16.70;99.90;;;;;;5028892;28;20042;-86
2021/07/07 05:52:30;;;;;;;5.47;1.65;;;16.80;99.90;;;;;;5026700;28;20049;-85
2021/07/07 05:55:19;;;;;;;6.38;1.70;;;16.60;99.90;;;;;;5032671;28;20180;-84
2021/07/07 05:58:06;;;;;;;3.90;1.40;;;16.40;99.90;;;;;;5035948;28;20112;-85
2021/07/07 06:00:54;;;;;;;4.32;1.52;;;16.30;99.90;;;;;;5036251;28;20049;-85
2021/07/07 06:03:42;;;;;;;4.07;1.60;;;16.10;99.90;;;;;;5037124;28;20061;-84
2021/07/07 06:06:29;;;;;;;6.20;1.92;;;16.00;99.90;;;;;;5040932;28;20052;-83
2021/07/07 06:09:17;;;;;;;5.85;1.63;;;15.80;99.90;;;;;;5041016;28;20061;-86
2021/07/07 06:12:04;;;;;;;6.05;1.73;;;15.90;99.90;;;;;;5036833;28;20077;-86
2021/07/07 06:14:52;;;;;;;6.18;1.88;;;16.10;99.90;;;;;;5033428;28;20057;-86
2021/07/07 06:17:39;;;;;;;5.53;1.60;;;16.20;99.90;;;;;;5033791;28;20060;-83
2021/07/07 06:20:27;;;;;;;6.10;1.95;;;16.30;99.90;;;;;;5032910;28;20046;-86
2021/07/07 06:23:14;;;;;;;4.40;1.80;;;16.40;99.90;;;;;;5030843;28;20481;-85
2021/07/07 06:26:02;;;;;;;3.63;1.55;;;16.40;99.90;;;;;;5033317;28;20069;-86
2021/07/07 06:28:50;;;;;;;5.47;1.70;;;16.60;99.90;;;;;;5029990;28;20128;-84
2021/07/07 06:31:37;;;;;;;6.25;1.80;;;16.70;99.90;;;;;;5032384;28;20175;-85
2021/07/07 06:34:24;;;;;;;5.22;1.45;;;16.70;99.90;;;;;;5044672;28;20410;-84
2021/07/07 06:37:11;;;;;;;6.30;1.67;;;16.80;99.90;;;;;;5048964;28;20048;-86
2021/07/07 06:39:59;;;;;;;8.85;1.70;;;16.90;99.90;;;;;;5047171;28;20046;-82
2021/07/07 06:42:48;;;;;;;6.53;1.92;;;16.80;99.90;;;;;;5047576;28;20054;-85
2021/07/07 06:45:37;;;;;;;6.38;1.40;;;16.90;99.90;;;;;;5047106;28;20122;-86
2021/07/07 06:48:24;;;;;;;13.05;2.03;;;16.90;99.90;;;;;;5043164;28;20049;-85
2021/07/07 06:51:11;;;;;;;5.75;1.65;;;16.90;99.90;;;;;;5044388;28;20132;-86
2021/07/07 06:53:58;;;;;;;4.68;1.50;;;16.90;99.90;;;;;;5041737;28;20104;-85
2021/07/07 06:56:45;;;;;;;5.53;1.63;;;17.00;99.90;;;;;;5044565;28;20048;-84
2021/07/07 06:59:34;;;;;;;8.68;1.63;;;17.10;99.90;;;;;;5041612;28;20042;-86
2021/07/07 07:02:21;;;;;;;4.65;1.75;;;17.10;99.90;;;;;;5042281;28;20073;-86
2021/07/07 07:05:10;;;;;;;9.15;1.77;;;17.20;99.90;;;;;;5043506;28;20053;-86
2021/07/07 07:07:57;;;;;;;6.80;1.47;;;17.30;99.90;;;;;;5041577;28;20042;-86
2021/07/07 07:10:45;;;;;;;5.38;2.00;;;17.40;99.90;;;;;;5038949;28;20319;-84
2021/07/07 07:13:32;;;;;;;7.20;1.48;;;17.50;99.90;;;;;;5039467;28;20061;-86
2021/07/07 07:16:21;;;;;;;8.00;1.70;;;17.60;99.90;;;;;;5026059;28;20049;-84
2021/07/07 07:19:09;;;;;;;8.35;1.90;;;17.90;99.90;;;;;;5024266;28;20057;-85
2021/07/07 07:21:57;;;;;;;5.40;1.58;;;17.80;99.90;;;;;;5022671;28;20067;-83
2021/07/07 07:24:44;;;;;;;6.90;1.30;;;17.80;99.90;;;;;;5035186;28;20582;-85
2021/07/07 07:27:32;;;;;;;8.20;1.60;;;18.10;99.90;;;;;;5036089;28;20067;-83
2021/07/07 07:30:19;;;;;;;6.22;1.80;;;18.10;99.90;;;;;;5037034;28;20057;-86
2021/07/07 07:33:08;;;;;;;8.18;1.50;;;18.20;99.90;;;;;;5034134;28;20041;-85
2021/07/07 07:35:55;;;;;;;7.43;1.90;;;18.30;99.90;;;;;;5035711;28;20100;-86
2021/07/07 07:38:45;;;;;;;7.30;1.58;;;18.40;99.90;;;;;;5036109;28;20053;-85
2021/07/07 07:41:37;;;;;;;7.40;1.50;;;18.50;99.90;;;;;;5036675;28;20046;-84
2021/07/07 07:44:24;;;;;;;5.40;1.60;;;18.60;99.90;;;;;;5033831;28;20038;-84
2021/07/07 07:47:12;;;;;;;4.80;1.42;;;18.70;99.90;;;;;;5034380;28;20046;-86
2021/07/07 07:50:21;;;;;;;5.18;1.50;;;19.20;99.90;;;;;;5034073;28;20045;-86
2021/07/07 07:53:08;;;;;;;4.72;1.58;;;18.90;99.90;;;;;;5034616;28;20559;-83
2021/07/07 07:55:55;;;;;;;5.63;1.55;;;19.00;99.90;;;;;;5033683;28;20049;-86
2021/07/07 07:58:42;;;;;;;6.40;1.42;;;19.10;99.90;;;;;;5032937;28;20045;-86
2021/07/07 08:01:30;;;;;;;6.00;1.55;;;19.30;99.90;;;;;;5033469;28;20053;-86
2021/07/07 08:04:18;;;;;;;7.43;1.80;;;19.20;99.90;;;;;;5033956;28;20259;-86
2021/07/07 08:07:07;;;;;;;6.85;1.67;;;19.20;99.90;;;;;;5034459;28;20128;-85
2021/07/07 08:09:58;;;;;;;6.90;1.70;;;19.30;99.90;;;;;;5033352;28;20056;-87
2021/07/07 08:12:45;;;;;;;7.72;1.75;;;19.40;99.90;;;;;;5032972;28;20057;-86
2021/07/07 08:15:34;;;;;;;5.60;1.52;;;19.50;99.90;;;;;;5019772;28;20053;-86
2021/07/07 08:18:21;;;;;;;7.93;1.75;;;19.50;99.90;;;;;;5018520;28;20120;-86
2021/07/07 08:21:08;;;;;;;6.20;1.65;;;19.60;99.90;;;;;;5018976;28;20597;-85
2021/07/07 08:23:57;;;;;;;4.03;1.40;;;19.60;99.90;;;;;;5018693;28;20128;-86
2021/07/07 08:26:44;;;;;;;7.95;1.70;;;20.10;99.90;;;;;;5018624;28;20067;-86
2021/07/07 08:29:31;;;;;;;7.05;1.70;;;19.80;99.90;;;;;;5018409;28;20099;-86
2021/07/07 08:32:18;;;;;;;6.68;1.58;;;19.80;99.90;;;;;;5019065;28;20128;-87
2021/07/07 08:35:07;;;;;;;4.93;1.52;;;19.90;99.90;;;;;;5018441;28;20124;-85
2021/07/07 08:37:54;;;;;;;4.53;1.55;;;20.00;99.90;;;;;;5029984;28;20449;-86
2021/07/07 08:40:43;;;;;;;5.70;1.92;;;20.10;99.90;;;;;;5031477;28;20075;-85
2021/07/07 08:43:30;;;;;;;9.10;1.75;;;20.20;99.90;;;;;;5032425;28;20426;-86
2021/07/07 08:46:18;;;;;;;9.40;1.90;;;20.20;99.90;;;;;;5032629;28;20503;-86
2021/07/07 08:49:06;;;;;;;8.68;1.40;;;20.30;99.90;;;;;;5031044;28;20056;-87
2021/07/07 08:51:53;;;;;;;8.18;1.80;;;20.50;99.90;;;;;;5032207;28;20049;-86
2021/07/07 08:54:40;;;;;;;4.90;1.70;;;20.70;99.90;;;;;;5030918;28;20582;-86
2021/07/07 08:57:28;;;;;;;5.97;1.77;;;20.80;99.90;;;;;;5031014;28;20059;-84
2021/07/07 09:00:22;;;;;;;8.52;1.80;;;21.10;99.90;;;;;;5030924;28;20038;-86
2021/07/07 09:03:11;;;;;;;5.68;1.88;;;21.20;99.90;;;;;;5030786;28;20502;-85
2021/07/07 09:06:01;;;;;;;8.95;1.63;;;21.40;99.90;;;;;;5030870;28;20503;-87
2021/07/07 09:08:49;;;;;;;5.72;1.48;;;21.50;99.90;;;;;;5030596;28;20041;-87
2021/07/07 09:11:37;;;;;;;4.57;1.42;;;21.80;99.90;;;;;;5031276;28;20171;-86
2021/07/07 09:14:31;;;;;;;6.07;1.70;;;22.00;99.90;;;;;;5018508;28;20132;-85
2021/07/07 09:17:20;;;;;;;5.65;1.67;;;22.20;99.90;;;;;;5016615;28;20135;-83
2021/07/07 09:20:19;;;;;;;7.50;1.50;;;22.40;99.90;;;;;;5016513;28;20572;-83
2021/07/07 09:23:17;;;;;;;8.35;1.90;;;22.60;99.90;;;;;;5018248;28;20103;-83
2021/07/07 09:26:06;;;;;;;5.53;1.30;;;22.80;99.90;;;;;;5016474;28;20410;-86
2021/07/07 09:28:53;;;;;;;5.13;1.35;;;23.10;99.90;;;;;;5016775;28;20146;-86
2021/07/07 09:31:42;;;;;;;9.35;1.50;;;23.30;99.90;;;;;;5016882;28;20537;-86
2021/07/07 09:34:29;;;;;;;6.55;1.45;;;23.20;99.50;;;;;;5031735;28;20045;-86
2021/07/07 09:37:26;;;;;;;6.25;1.45;;;23.20;99.30;;;;;;5032131;28;20131;-86
2021/07/07 09:40:14;;;;;;;4.95;1.70;;;23.20;99.50;;;;;;5031228;28;20042;-86
2021/07/07 09:43:03;;;;;;;4.40;1.30;;;22.90;99.60;;;;;;5031723;28;20063;-87
2021/07/07 09:45:51;;;;;;;5.07;1.55;;;22.80;99.80;;;;;;5017599;28;20053;-87
2021/07/07 09:48:39;;;;;;;5.28;1.27;;;23.00;99.90;;;;;;5016332;28;20045;-86
2021/07/07 09:51:26;;;;;;;4.90;1.30;;;23.20;99.90;;;;;;5016998;28;20041;-87
2021/07/07 09:54:14;;;;;;;5.63;1.52;;;23.40;99.90;;;;;;5017015;28;20426;-83
2021/07/07 09:57:01;;;;;;;4.18;1.20;;;23.50;98.10;;;;;;5017131;28;20539;-86
2021/07/07 09:59:48;;;;;;;6.40;1.35;;;23.70;99.90;;;;;;5031364;28;20046;-84
2021/07/07 10:02:35;;;;;;;7.57;1.50;;;23.80;99.40;;;;;;5016992;28;20055;-87
2021/07/07 10:05:24;;;;;;;10.00;1.55;;;23.80;98.20;;;;;;5016301;28;20049;-86
2021/07/07 10:08:11;;;;;;;4.40;1.23;;;23.90;98.70;;;;;;5031756;28;20053;-86
2021/07/07 10:11:00;;;;;;;7.28;1.40;;;23.90;97.10;;;;;;5034521;28;20052;-86
2021/07/07 10:13:47;;;;;;;6.50;1.50;;;25.40;97.40;;;;;;5015046;28;20531;-83
2021/07/07 10:16:34;;;;;;;4.95;1.30;;;23.80;97.90;;;;;;5013681;28;20097;-86
2021/07/07 10:19:22;;;;;;;7.28;1.58;;;23.80;97.60;;;;;;5014446;28;20057;-85
2021/07/07 10:22:10;;;;;;;8.40;1.30;;;23.90;98.00;;;;;;5000421;28;20511;-86
2021/07/07 10:24:59;;;;;;;5.87;1.50;;;24.20;97.90;;;;;;5001302;28;20054;-85
2021/07/07 10:27:47;;;;;;;6.67;1.63;;;24.50;97.20;;;;;;5013416;28;20284;-86
2021/07/07 10:30:49;;;;;;;6.88;1.48;;;24.60;96.80;;;;;;5001279;28;20057;-87
2021/07/07 10:33:38;;;;;;;3.63;0.98;;;24.80;96.20;;;;;;5031130;28;20045;-87
2021/07/07 10:36:29;;;;;;;4.82;1.27;;;25.10;96.60;;;;;;5021312;28;20041;-87
2021/07/07 10:39:18;;;;;;;5.43;1.50;;;25.30;96.50;;;;;;5035445;28;20495;-86
2021/07/07 10:42:07;;;;;;;4.53;1.40;;;25.10;94.40;;;;;;5019548;28;20046;-87
2021/07/07 10:44:54;;;;;;;5.28;1.20;;;25.20;96.60;;;;;;5073425;23;20393;-84
2021/07/07 10:47:41;;;;;;;5.18;1.40;;;25.30;95.30;;;;;;5086123;28;20127;-85
2021/07/07 10:50:33;;;;;;;7.07;1.30;;;25.50;95.70;;;;;;5059246;28;20040;-85
2021/07/07 10:53:22;;;;;;;6.97;1.48;;;25.50;94.80;;;;;;5059803;28;20048;-86
2021/07/07 10:56:11;;;;;;;5.93;1.20;;;25.60;95.20;;;;;;5038508;28;20132;-86
2021/07/07 10:58:58;;;;;;;6.33;1.60;;;25.60;95.80;;;;;;5054053;28;20052;-85
2021/07/07 11:01:58;;;;;;;5.50;1.42;;;25.70;93.30;;;;;;5055107;28;20296;-86
2021/07/07 11:04:47;;;;;;;6.63;1.35;;;25.50;96.10;;;;;;5052047;28;20094;-85
2021/07/07 11:07:37;;;;;;;5.30;1.20;;;25.70;95.50;;;;;;5053191;28;20052;-85
2021/07/07 11:10:24;;;;;;;6.15;1.33;;;25.70;93.40;;;;;;5053917;28;20490;-87
2021/07/07 11:13:14;;;;;;;5.07;1.27;;;25.30;94.70;;;;;;5037929;28;20467;-86
2021/07/07 11:16:08;;;;;;;5.22;1.17;;;25.30;95.50;;;;;;5019090;28;20053;-86
2021/07/07 11:18:55;;;;;;;3.88;1.17;;;25.20;95.60;;;;;;5032971;28;20120;-86
2021/07/07 11:21:42;;;;;;;5.15;1.10;;;25.20;95.90;;;;;;5033556;28;20059;-85
2021/07/07 11:24:30;;;;;;;6.45;1.13;;;25.10;95.00;;;;;;5034721;28;20049;-85
2021/07/07 11:27:17;;;;;;;5.60;1.30;;;25.10;96.00;;;;;;5035560;28;20054;-85
2021/07/07 11:30:08;;;;;;;5.80;1.20;;;25.10;94.20;;;;;;5018748;28;20783;-85
2021/07/07 11:33:06;;;;;;;4.70;1.30;;;25.10;95.60;;;;;;5045898;28;20505;-85
2021/07/07 11:35:53;;;;;;;5.00;1.17;;;25.00;94.60;;;;;;5039608;28;20122;-86
2021/07/07 11:38:40;;;;;;;7.93;1.45;;;25.00;94.90;;;;;;5052873;28;20059;-85
2021/07/07 11:41:28;;;;;;;8.20;1.35;;;25.20;95.70;;;;;;5051566;28;20045;-85
2021/07/07 11:44:40;;;;;;;5.20;1.33;;;25.20;94.10;;;;;;5052222;28;20163;-86
2021/07/07 11:47:34;;;;;;;9.43;1.70;;;25.40;93.60;;;;;;5052175;28;20132;-84
2021/07/07 11:50:22;;;;;;;7.13;2.75;;;25.50;94.70;;;;;;5051720;28;20524;-85
2021/07/07 11:53:09;;;;;;;4.70;1.73;;;25.80;96.40;;;;;;5053198;28;20128;-85
2021/07/07 11:55:59;;;;;;;7.03;1.65;;;25.90;94.80;;;;;;5051028;28;20049;-85
2021/07/07 11:58:48;;;;;;;3.50;1.08;;;26.00;95.00;;;;;;5052997;28;20049;-85
2021/07/07 12:01:36;;;;;;;5.60;1.50;;;26.20;93.50;;;;;;5051678;28;20124;-85
2021/07/07 12:04:26;;;;;;;4.57;1.30;;;26.30;93.80;;;;;;5052546;28;20045;-86
2021/07/07 12:07:13;;;;;;;3.00;1.00;;;26.20;95.30;;;;;;5053112;28;20135;-85
2021/07/07 12:10:01;;;;;;;6.15;1.50;;;26.20;93.50;;;;;;5053427;28;20061;-85
2021/07/07 12:12:48;;;;;;;7.82;1.60;;;26.00;93.30;;;;;;5050632;28;20122;-85
2021/07/07 12:15:35;;;;;;;4.93;1.15;;;25.80;94.30;;;;;;5051713;28;20525;-86
2021/07/07 12:18:25;;;;;;;4.70;1.20;;;25.70;95.00;;;;;;5053235;28;20052;-85
2021/07/07 12:21:27;;;;;;;7.45;1.40;;;25.70;93.80;;;;;;5038294;28;20304;-86
2021/07/07 12:24:18;;;;;;;6.03;1.70;;;25.60;93.70;;;;;;5051826;28;20055;-85
2021/07/07 12:27:08;;;;;;;6.05;1.27;;;25.50;93.50;;;;;;5053508;28;20059;-85
2021/07/07 12:29:55;;;;;;;5.40;1.30;;;25.40;93.00;;;;;;5051874;28;20053;-84
2021/07/07 12:32:42;;;;;;;6.45;1.35;;;25.30;93.20;;;;;;5051413;28;20120;-85
2021/07/07 12:35:30;;;;;;;5.75;1.20;;;25.20;92.60;;;;;;5053099;28;20056;-85
2021/07/07 12:38:18;;;;;;;5.47;1.45;;;25.20;93.60;;;;;;5051578;28;20525;-85
2021/07/07 12:41:06;;;;;;;8.97;1.57;;;25.30;94.00;;;;;;5053890;28;20115;-85
2021/07/07 12:44:07;;;;;;;6.82;1.23;;;25.30;93.90;;;;;;5056763;28;20286;-87
2021/07/07 12:46:57;;;;;;;7.55;1.30;;;25.30;93.30;;;;;;5058102;28;20051;-86
2021/07/07 12:49:47;;;;;;;5.68;1.27;;;25.30;94.20;;;;;;5059022;28;20525;-86
2021/07/07 12:52:34;;;;;;;;;;;25.50;94.80;;;;;;5058401;28;20056;-87
2021/07/07 12:55:24;;;;;;;5.68;1.40;;;25.50;94.10;;;;;;5071503;28;19921;-87
2021/07/07 12:58:13;;;;;;;4.78;1.48;;;25.50;94.60;;;;;;5058687;28;20135;-87
2021/07/07 13:01:01;;;;;;;;;;;25.50;94.70;;;;;;5059915;28;20048;-87
2021/07/07 13:03:48;;;;;;;4.30;1.30;;;25.50;94.80;;;;;;5059050;28;20441;-87
2021/07/07 13:06:35;;;;;;;4.68;1.25;;;25.70;95.50;;;;;;5058039;28;20126;-86
2021/07/07 13:09:22;;;;;;;4.38;1.15;;;25.80;95.30;;;;;;5057896;28;20075;-88
2021/07/07 13:12:11;;;;;;;4.88;1.20;;;25.80;94.10;;;;;;5072251;28;20565;-84
2021/07/07 13:14:58;;;;;;;5.70;1.10;;;25.70;91.50;;;;;;5041911;28;20051;-85
2021/07/07 13:17:58;;;;;;;4.13;1.00;;;25.40;92.30;;;;;;5051087;28;20053;-87
2021/07/07 13:20:56;;;;;;;5.95;1.08;;;25.30;92.10;;;;;;5051063;28;20045;-86
2021/07/07 13:23:48;;;;;;;5.38;1.13;;;25.50;92.80;;;;;;5035495;28;20049;-85
2021/07/07 13:26:41;;;;;;;6.82;1.33;;;26.00;92.70;;;;;;5052876;28;20079;-84
2021/07/07 13:29:31;;;;;;;5.18;1.33;;;26.30;91.50;;;;;;5050991;28;20112;-86
2021/07/07 13:32:20;;;;;;;4.28;1.20;;;26.50;93.30;;;;;;5050403;28;20068;-86
2021/07/07 13:35:11;;;;;;;8.25;1.60;;;26.20;92.80;;;;;;5053116;28;20040;-85
2021/07/07 13:38:08;;;;;;;6.95;1.52;;;26.00;93.80;;;;;;5050530;28;20577;-86
2021/07/07 13:40:55;;;;;;;3.88;1.13;;;25.70;94.20;;;;;;5039200;28;20091;-86
2021/07/07 13:43:43;;;;;;;4.18;1.30;;;25.50;92.90;;;;;;5054204;28;20112;-85
2021/07/07 13:46:33;;;;;;;3.83;1.08;;;25.40;93.50;;;;;;5056745;28;20040;-85
2021/07/07 13:49:20;;;;;;;5.00;1.30;;;25.30;95.50;;;;;;5057066;28;20056;-88
2021/07/07 13:52:08;;;;;;;6.18;1.52;;;25.50;94.40;;;;;;5055194;28;20051;-84
2021/07/07 13:54:55;;;;;;;4.25;1.30;;;25.70;94.60;;;;;;5057811;28;20045;-84
2021/07/07 13:57:43;;;;;;;4.70;1.27;;;26.00;95.40;;;;;;5057630;28;20045;-85
2021/07/07 14:00:31;;;;;;;6.47;1.25;;;26.20;94.00;;;;;;5056671;28;20186;-86
2021/07/07 14:03:19;;;;;;;4.35;1.25;;;26.30;94.30;;;;;;5055609;28;20517;-83
2021/07/07 14:06:06;;;;;;;5.80;1.60;;;26.50;94.30;;;;;;5057211;28;20109;-86
2021/07/07 14:08:53;;;;;;;5.63;1.42;;;26.60;93.20;;;;;;5055527;28;20280;-86
2021/07/07 14:11:41;;;;;;;7.45;1.27;;;26.70;93.50;;;;;;5055188;28;20037;-85
2021/07/07 14:14:35;;;;;;;4.60;1.42;;;26.70;94.10;;;;;;5055961;28;20052;-88
2021/07/07 14:17:24;;;;;;;4.13;1.50;;;26.60;93.70;;;;;;5057308;28;20051;-87
2021/07/07 14:20:13;;;;;;;5.30;1.27;;;26.70;93.30;;;;;;5056117;28;20433;-85
2021/07/07 14:23:00;;;;;;;5.07;1.40;;;26.80;94.00;;;;;;5056144;28;20038;-85
2021/07/07 14:25:47;;;;;;;5.00;1.20;;;27.20;92.10;;;;;;5056456;28;20525;-86
2021/07/07 14:28:34;;;;;;;3.97;1.05;;;27.60;92.10;;;;;;5056110;28;20569;-86
2021/07/07 14:31:22;;;;;;;6.00;1.45;;;28.00;92.80;;;;;;5055983;28;20049;-83
2021/07/07 14:34:15;;;;;;;6.55;1.40;;;28.50;91.50;;;;;;5056466;28;20055;-84
2021/07/07 14:37:04;;;;;;;5.63;1.30;;;28.70;90.40;;;;;;5057480;28;20045;-85